sensor_id;sensor_type;location;lat;lon;timestamp;pressure;altitude;pressure_sealevel;temperature;humidity
9672;BME280;4874;43.568;27.824;2023-05-03T00:00:51;99678.84;;;9.88;100.00
9672;BME280;4874;43.568;27.824;2023-05-03T00:03:18;99683.09;;;9.35;100.00
9672;BME280;4874;43.568;27.824;2023-05-03T00:05:48;99675.25;;;9.33;100.00
9672;BME280;4874;43.568;27.824;2023-05-03T00:08:15;99676.69;;;9.82;100.00
9672;BME280;4874;43.568;27.824;2023-05-03T00:10:42;99678.47;;;10.03;100.00
9672;BME280;4874;43.568;27.824;2023-05-03T00:13:08;99675.59;;;9.84;100.00
9672;BME280;4874;43.568;27.824;2023-05-03T00:15:35;99678.25;;;9.95;100.00
9672;BME280;4874;43.568;27.824;2023-05-03T00:18:01;99670.66;;;9.80;100.00
9672;BME280;4874;43.568;27.824;2023-05-03T00:20:28;99673.94;;;9.50;100.00
9672;BME280;4874;43.568;27.824;2023-05-03T00:22:54;99665.63;;;9.55;100.00
9672;BME280;4874;43.568;27.824;2023-05-03T00:25:21;99667.88;;;9.81;100.00
9672;BME280;4874;43.568;27.824;2023-05-03T00:27:48;99672.63;;;9.67;100.00
9672;BME280;4874;43.568;27.824;2023-05-03T00:30:14;99679.69;;;9.77;100.00
9672;BME280;4874;43.568;27.824;2023-05-03T00:32:41;99682.97;;;9.70;100.00
9672;BME280;4874;43.568;27.824;2023-05-03T00:35:07;99694.91;;;9.42;100.00
9672;BME280;4874;43.568;27.824;2023-05-03T00:37:35;99696.22;;;9.59;100.00
9672;BME280;4874;43.568;27.824;2023-05-03T00:40:01;99688.03;;;9.50;100.00
9672;BME280;4874;43.568;27.824;2023-05-03T00:42:32;99682.72;;;9.50;100.00
9672;BME280;4874;43.568;27.824;2023-05-03T00:44:59;99690.69;;;9.50;100.00
9672;BME280;4874;43.568;27.824;2023-05-03T00:47:26;99674.75;;;9.62;100.00
9672;BME280;4874;43.568;27.824;2023-05-03T00:49:52;99666.22;;;9.25;100.00
9672;BME280;4874;43.568;27.824;2023-05-03T00:52:19;99668.16;;;9.45;100.00
9672;BME280;4874;43.568;27.824;2023-05-03T00:54:46;99660.56;;;9.63;100.00
9672;BME280;4874;43.568;27.824;2023-05-03T00:57:12;99669.00;;;9.79;100.00
9672;BME280;4874;43.568;27.824;2023-05-03T00:59:39;99674.53;;;9.76;100.00
9672;BME280;4874;43.568;27.824;2023-05-03T01:02:05;99680.44;;;9.57;100.00
9672;BME280;4874;43.568;27.824;2023-05-03T01:04:33;99669.25;;;9.65;100.00
9672;BME280;4874;43.568;27.824;2023-05-03T01:07:05;99677.06;;;9.44;100.00
9672;BME280;4874;43.568;27.824;2023-05-03T01:09:48;99681.97;;;9.04;100.00
9672;BME280;4874;43.568;27.824;2023-05-03T01:12:23;99681.47;;;8.99;100.00
9672;BME280;4874;43.568;27.824;2023-05-03T01:17:33;99673.88;;;8.60;100.00
9672;BME280;4874;43.568;27.824;2023-05-03T01:20:04;99674.19;;;8.45;100.00
9672;BME280;4874;43.568;27.824;2023-05-03T01:25:10;99672.06;;;8.61;100.00
9672;BME280;4874;43.568;27.824;2023-05-03T01:27:38;99673.81;;;8.38;100.00
9672;BME280;4874;43.568;27.824;2023-05-03T01:30:05;99684.44;;;8.25;100.00
9672;BME280;4874;43.568;27.824;2023-05-03T01:35:13;99663.38;;;8.48;100.00
9672;BME280;4874;43.568;27.824;2023-05-03T01:37:41;99665.91;;;8.25;100.00
9672;BME280;4874;43.568;27.824;2023-05-03T01:40:08;99667.03;;;8.34;100.00
9672;BME280;4874;43.568;27.824;2023-05-03T01:42:36;99661.59;;;8.12;100.00
9672;BME280;4874;43.568;27.824;2023-05-03T01:45:03;99668.28;;;8.41;100.00
9672;BME280;4874;43.568;27.824;2023-05-03T01:47:30;99675.81;;;8.93;100.00
9672;BME280;4874;43.568;27.824;2023-05-03T01:49:56;99674.00;;;9.04;100.00
9672;BME280;4874;43.568;27.824;2023-05-03T01:52:23;99677.09;;;8.98;100.00
9672;BME280;4874;43.568;27.824;2023-05-03T01:54:49;99668.00;;;9.13;100.00
9672;BME280;4874;43.568;27.824;2023-05-03T01:57:16;99666.19;;;9.36;100.00
9672;BME280;4874;43.568;27.824;2023-05-03T01:59:42;99668.16;;;9.45;100.00
9672;BME280;4874;43.568;27.824;2023-05-03T02:02:09;99667.53;;;9.19;100.00
9672;BME280;4874;43.568;27.824;2023-05-03T02:04:36;99662.41;;;8.83;100.00
9672;BME280;4874;43.568;27.824;2023-05-03T02:07:03;99669.84;;;8.78;100.00
9672;BME280;4874;43.568;27.824;2023-05-03T02:09:29;99674.75;;;9.06;100.00
9672;BME280;4874;43.568;27.824;2023-05-03T02:11:56;99672.22;;;9.16;100.00
9672;BME280;4874;43.568;27.824;2023-05-03T02:14:22;99670.56;;;9.37;100.00
9672;BME280;4874;43.568;27.824;2023-05-03T02:16:49;99666.19;;;9.14;100.00
9672;BME280;4874;43.568;27.824;2023-05-03T02:19:16;99666.03;;;8.82;100.00
9672;BME280;4874;43.568;27.824;2023-05-03T02:21:43;99669.69;;;9.14;100.00
9672;BME280;4874;43.568;27.824;2023-05-03T02:24:10;99679.44;;;9.14;100.00
9672;BME280;4874;43.568;27.824;2023-05-03T02:26:36;99680.03;;;9.17;100.00
9672;BME280;4874;43.568;27.824;2023-05-03T02:29:03;99674.22;;;8.90;100.00
9672;BME280;4874;43.568;27.824;2023-05-03T02:31:29;99673.03;;;8.94;100.00
9672;BME280;4874;43.568;27.824;2023-05-03T02:33:56;99675.47;;;9.08;100.00
9672;BME280;4874;43.568;27.824;2023-05-03T02:36:23;99680.78;;;9.19;100.00
9672;BME280;4874;43.568;27.824;2023-05-03T02:38:49;99687.38;;;9.14;100.00
9672;BME280;4874;43.568;27.824;2023-05-03T02:41:16;99686.16;;;9.07;100.00
9672;BME280;4874;43.568;27.824;2023-05-03T02:43:42;99696.31;;;8.78;100.00
9672;BME280;4874;43.568;27.824;2023-05-03T02:46:09;99687.03;;;8.73;100.00
9672;BME280;4874;43.568;27.824;2023-05-03T02:48:36;99676.56;;;9.17;100.00
9672;BME280;4874;43.568;27.824;2023-05-03T02:51:02;99685.59;;;8.80;100.00
9672;BME280;4874;43.568;27.824;2023-05-03T02:53:29;99690.94;;;8.56;100.00
9672;BME280;4874;43.568;27.824;2023-05-03T02:55:55;99686.00;;;8.52;100.00
9672;BME280;4874;43.568;27.824;2023-05-03T02:58:22;99686.81;;;8.52;100.00
9672;BME280;4874;43.568;27.824;2023-05-03T03:00:49;99687.69;;;8.53;100.00
9672;BME280;4874;43.568;27.824;2023-05-03T03:03:15;99691.34;;;8.39;100.00
9672;BME280;4874;43.568;27.824;2023-05-03T03:05:42;99693.03;;;8.64;100.00
9672;BME280;4874;43.568;27.824;2023-05-03T03:08:09;99694.84;;;8.74;100.00
9672;BME280;4874;43.568;27.824;2023-05-03T03:10:35;99692.97;;;8.87;100.00
9672;BME280;4874;43.568;27.824;2023-05-03T03:13:02;99695.47;;;9.23;100.00
9672;BME280;4874;43.568;27.824;2023-05-03T03:15:28;99694.09;;;9.07;100.00
9672;BME280;4874;43.568;27.824;2023-05-03T03:17:55;99688.91;;;8.94;100.00
9672;BME280;4874;43.568;27.824;2023-05-03T03:20:23;99696.72;;;8.50;100.00
9672;BME280;4874;43.568;27.824;2023-05-03T03:22:50;99687.94;;;8.61;100.00
9672;BME280;4874;43.568;27.824;2023-05-03T03:25:17;99698.19;;;8.42;100.00
9672;BME280;4874;43.568;27.824;2023-05-03T03:27:43;99710.44;;;8.19;100.00
9672;BME280;4874;43.568;27.824;2023-05-03T03:30:10;99707.09;;;8.41;100.00
9672;BME280;4874;43.568;27.824;2023-05-03T03:32:37;99700.97;;;8.64;100.00
9672;BME280;4874;43.568;27.824;2023-05-03T03:35:03;99699.53;;;8.71;100.00
9672;BME280;4874;43.568;27.824;2023-05-03T03:37:30;99696.69;;;8.74;100.00
9672;BME280;4874;43.568;27.824;2023-05-03T03:39:57;99700.84;;;9.00;100.00
9672;BME280;4874;43.568;27.824;2023-05-03T03:42:24;99696.25;;;8.91;100.00
9672;BME280;4874;43.568;27.824;2023-05-03T03:44:51;99702.94;;;9.18;100.00
9672;BME280;4874;43.568;27.824;2023-05-03T03:47:17;99691.91;;;8.55;100.00
9672;BME280;4874;43.568;27.824;2023-05-03T03:49:44;99695.63;;;8.53;100.00
9672;BME280;4874;43.568;27.824;2023-05-03T03:52:11;99700.03;;;8.41;100.00
9672;BME280;4874;43.568;27.824;2023-05-03T03:54:37;99707.31;;;8.61;100.00
9672;BME280;4874;43.568;27.824;2023-05-03T03:57:04;99714.28;;;8.62;100.00
9672;BME280;4874;43.568;27.824;2023-05-03T03:59:30;99715.25;;;8.61;100.00
9672;BME280;4874;43.568;27.824;2023-05-03T04:01:57;99710.13;;;8.47;100.00
9672;BME280;4874;43.568;27.824;2023-05-03T04:04:24;99709.38;;;8.34;100.00
9672;BME280;4874;43.568;27.824;2023-05-03T04:06:50;99718.22;;;8.33;100.00
9672;BME280;4874;43.568;27.824;2023-05-03T04:09:17;99712.13;;;8.32;100.00
9672;BME280;4874;43.568;27.824;2023-05-03T04:11:44;99735.84;;;8.45;100.00
9672;BME280;4874;43.568;27.824;2023-05-03T04:14:11;99739.75;;;8.52;100.00
9672;BME280;4874;43.568;27.824;2023-05-03T04:16:37;99745.34;;;8.60;100.00
9672;BME280;4874;43.568;27.824;2023-05-03T04:19:04;99750.03;;;8.91;100.00
9672;BME280;4874;43.568;27.824;2023-05-03T04:21:31;99749.31;;;8.89;100.00
9672;BME280;4874;43.568;27.824;2023-05-03T04:23:57;99751.72;;;8.92;100.00
9672;BME280;4874;43.568;27.824;2023-05-03T04:26:25;99738.50;;;9.03;100.00
9672;BME280;4874;43.568;27.824;2023-05-03T04:28:56;99734.56;;;9.09;100.00
9672;BME280;4874;43.568;27.824;2023-05-03T04:31:23;99736.91;;;9.24;100.00
9672;BME280;4874;43.568;27.824;2023-05-03T04:33:50;99731.16;;;8.96;100.00
9672;BME280;4874;43.568;27.824;2023-05-03T04:36:17;99741.56;;;9.21;100.00
9672;BME280;4874;43.568;27.824;2023-05-03T04:38:44;99740.94;;;9.06;100.00
9672;BME280;4874;43.568;27.824;2023-05-03T04:41:10;99748.41;;;9.01;100.00
9672;BME280;4874;43.568;27.824;2023-05-03T04:43:39;99743.63;;;9.17;100.00
9672;BME280;4874;43.568;27.824;2023-05-03T04:46:06;99741.41;;;9.57;100.00
9672;BME280;4874;43.568;27.824;2023-05-03T04:48:33;99736.69;;;9.49;100.00
9672;BME280;4874;43.568;27.824;2023-05-03T04:51:01;99737.44;;;9.74;100.00
9672;BME280;4874;43.568;27.824;2023-05-03T04:53:28;99732.25;;;9.94;100.00
9672;BME280;4874;43.568;27.824;2023-05-03T04:55:54;99723.31;;;10.28;100.00
9672;BME280;4874;43.568;27.824;2023-05-03T04:58:21;99721.91;;;10.56;100.00
9672;BME280;4874;43.568;27.824;2023-05-03T05:00:48;99727.47;;;10.53;100.00
9672;BME280;4874;43.568;27.824;2023-05-03T05:03:14;99728.56;;;10.50;100.00
9672;BME280;4874;43.568;27.824;2023-05-03T05:05:41;99738.94;;;10.53;100.00
9672;BME280;4874;43.568;27.824;2023-05-03T05:08:08;99731.44;;;10.58;100.00
9672;BME280;4874;43.568;27.824;2023-05-03T05:10:41;99737.81;;;10.56;100.00
9672;BME280;4874;43.568;27.824;2023-05-03T05:13:07;99733.50;;;10.55;100.00
9672;BME280;4874;43.568;27.824;2023-05-03T05:15:34;99745.31;;;10.51;100.00
9672;BME280;4874;43.568;27.824;2023-05-03T05:18:01;99731.34;;;10.81;100.00
9672;BME280;4874;43.568;27.824;2023-05-03T05:20:27;99738.25;;;11.04;100.00
9672;BME280;4874;43.568;27.824;2023-05-03T05:22:54;99738.44;;;11.32;100.00
9672;BME280;4874;43.568;27.824;2023-05-03T05:25:21;99725.28;;;11.51;100.00
9672;BME280;4874;43.568;27.824;2023-05-03T05:27:47;99728.00;;;11.40;100.00
9672;BME280;4874;43.568;27.824;2023-05-03T05:30:14;99731.75;;;11.79;100.00
9672;BME280;4874;43.568;27.824;2023-05-03T05:32:40;99738.91;;;11.88;100.00
9672;BME280;4874;43.568;27.824;2023-05-03T05:35:07;99737.97;;;12.38;100.00
9672;BME280;4874;43.568;27.824;2023-05-03T05:37:34;99741.13;;;12.81;100.00
9672;BME280;4874;43.568;27.824;2023-05-03T05:40:01;99736.50;;;13.12;100.00
9672;BME280;4874;43.568;27.824;2023-05-03T05:42:28;99739.72;;;13.16;100.00
9672;BME280;4874;43.568;27.824;2023-05-03T05:44:55;99732.81;;;13.32;100.00
9672;BME280;4874;43.568;27.824;2023-05-03T05:47:22;99723.03;;;13.23;100.00
9672;BME280;4874;43.568;27.824;2023-05-03T05:49:49;99731.38;;;13.47;100.00
9672;BME280;4874;43.568;27.824;2023-05-03T05:52:15;99743.34;;;13.89;100.00
9672;BME280;4874;43.568;27.824;2023-05-03T05:54:42;99729.56;;;13.57;100.00
9672;BME280;4874;43.568;27.824;2023-05-03T05:57:08;99739.84;;;13.24;100.00
9672;BME280;4874;43.568;27.824;2023-05-03T05:59:35;99726.97;;;13.19;100.00
9672;BME280;4874;43.568;27.824;2023-05-03T06:02:02;99730.88;;;13.90;100.00
9672;BME280;4874;43.568;27.824;2023-05-03T06:04:29;99731.75;;;13.71;100.00
9672;BME280;4874;43.568;27.824;2023-05-03T06:06:56;99728.50;;;14.14;100.00
9672;BME280;4874;43.568;27.824;2023-05-03T06:09:22;99737.97;;;14.36;100.00
9672;BME280;4874;43.568;27.824;2023-05-03T06:11:50;99741.34;;;14.55;100.00
9672;BME280;4874;43.568;27.824;2023-05-03T06:14:17;99734.50;;;14.88;100.00
9672;BME280;4874;43.568;27.824;2023-05-03T06:16:45;99744.66;;;14.67;100.00
9672;BME280;4874;43.568;27.824;2023-05-03T06:19:12;99733.50;;;14.71;100.00
9672;BME280;4874;43.568;27.824;2023-05-03T06:21:39;99733.63;;;14.52;100.00
9672;BME280;4874;43.568;27.824;2023-05-03T06:24:05;99736.63;;;14.84;100.00
9672;BME280;4874;43.568;27.824;2023-05-03T06:26:32;99729.06;;;15.58;100.00
9672;BME280;4874;43.568;27.824;2023-05-03T06:28:59;99741.13;;;15.19;100.00
9672;BME280;4874;43.568;27.824;2023-05-03T06:31:26;99746.50;;;14.84;100.00
9672;BME280;4874;43.568;27.824;2023-05-03T06:33:52;99750.09;;;14.75;100.00
9672;BME280;4874;43.568;27.824;2023-05-03T06:36:19;99739.25;;;15.11;100.00
9672;BME280;4874;43.568;27.824;2023-05-03T06:38:46;99745.03;;;15.07;100.00
9672;BME280;4874;43.568;27.824;2023-05-03T06:41:12;99745.81;;;14.99;100.00
9672;BME280;4874;43.568;27.824;2023-05-03T06:43:39;99752.66;;;15.37;100.00
9672;BME280;4874;43.568;27.824;2023-05-03T06:46:05;99746.75;;;15.08;100.00
9672;BME280;4874;43.568;27.824;2023-05-03T06:48:32;99748.59;;;15.33;100.00
9672;BME280;4874;43.568;27.824;2023-05-03T06:50:59;99750.84;;;15.63;100.00
9672;BME280;4874;43.568;27.824;2023-05-03T06:53:25;99760.59;;;15.29;100.00
9672;BME280;4874;43.568;27.824;2023-05-03T06:55:52;99756.59;;;15.07;100.00
9672;BME280;4874;43.568;27.824;2023-05-03T06:58:18;99757.13;;;15.28;100.00
9672;BME280;4874;43.568;27.824;2023-05-03T07:00:45;99754.06;;;15.23;100.00
9672;BME280;4874;43.568;27.824;2023-05-03T07:03:12;99741.44;;;15.77;100.00
9672;BME280;4874;43.568;27.824;2023-05-03T07:05:39;99750.09;;;15.71;100.00
9672;BME280;4874;43.568;27.824;2023-05-03T07:08:05;99749.09;;;15.72;100.00
9672;BME280;4874;43.568;27.824;2023-05-03T07:10:32;99754.34;;;15.38;100.00
9672;BME280;4874;43.568;27.824;2023-05-03T07:12:59;99741.56;;;15.75;100.00
9672;BME280;4874;43.568;27.824;2023-05-03T07:15:26;99734.28;;;15.85;100.00
9672;BME280;4874;43.568;27.824;2023-05-03T07:17:53;99735.59;;;15.56;100.00
9672;BME280;4874;43.568;27.824;2023-05-03T07:20:20;99745.78;;;16.11;100.00
9672;BME280;4874;43.568;27.824;2023-05-03T07:22:46;99727.03;;;15.78;98.93
9672;BME280;4874;43.568;27.824;2023-05-03T07:25:13;99724.63;;;16.34;98.38
9672;BME280;4874;43.568;27.824;2023-05-03T07:27:43;99722.56;;;15.86;96.86
9672;BME280;4874;43.568;27.824;2023-05-03T07:30:09;99733.53;;;16.42;97.62
9672;BME280;4874;43.568;27.824;2023-05-03T07:32:36;99733.19;;;16.45;89.69
9672;BME280;4874;43.568;27.824;2023-05-03T07:35:03;99740.88;;;16.82;85.79
9672;BME280;4874;43.568;27.824;2023-05-03T07:37:30;99738.56;;;17.11;81.47
9672;BME280;4874;43.568;27.824;2023-05-03T07:39:56;99747.31;;;16.48;77.06
9672;BME280;4874;43.568;27.824;2023-05-03T07:42:23;99744.50;;;16.57;74.69
9672;BME280;4874;43.568;27.824;2023-05-03T07:44:50;99739.88;;;16.99;76.85
9672;BME280;4874;43.568;27.824;2023-05-03T07:47:17;99748.78;;;17.16;73.73
9672;BME280;4874;43.568;27.824;2023-05-03T07:49:43;99733.84;;;15.98;73.30
9672;BME280;4874;43.568;27.824;2023-05-03T07:52:10;99741.97;;;16.22;74.32
9672;BME280;4874;43.568;27.824;2023-05-03T07:54:36;99728.78;;;15.87;71.88
9672;BME280;4874;43.568;27.824;2023-05-03T07:57:03;99751.91;;;15.96;74.60
9672;BME280;4874;43.568;27.824;2023-05-03T07:59:30;99758.56;;;16.17;73.79
9672;BME280;4874;43.568;27.824;2023-05-03T08:01:56;99768.53;;;16.83;73.86
9672;BME280;4874;43.568;27.824;2023-05-03T08:04:26;99771.91;;;17.01;71.88
9672;BME280;4874;43.568;27.824;2023-05-03T08:06:52;99766.25;;;17.60;71.22
9672;BME280;4874;43.568;27.824;2023-05-03T08:09:19;99763.06;;;17.65;67.31
9672;BME280;4874;43.568;27.824;2023-05-03T08:11:46;99777.28;;;17.97;64.90
9672;BME280;4874;43.568;27.824;2023-05-03T08:14:12;99790.53;;;17.18;63.38
9672;BME280;4874;43.568;27.824;2023-05-03T08:16:39;99796.97;;;17.74;60.80
9672;BME280;4874;43.568;27.824;2023-05-03T08:19:05;99793.94;;;17.44;61.24
9672;BME280;4874;43.568;27.824;2023-05-03T08:21:33;99788.88;;;17.25;58.76
9672;BME280;4874;43.568;27.824;2023-05-03T08:24:00;99791.03;;;17.86;59.04
9672;BME280;4874;43.568;27.824;2023-05-03T08:26:27;99790.19;;;18.64;58.87
9672;BME280;4874;43.568;27.824;2023-05-03T08:28:55;99804.16;;;17.81;59.54
9672;BME280;4874;43.568;27.824;2023-05-03T08:31:22;99802.69;;;19.11;60.35
9672;BME280;4874;43.568;27.824;2023-05-03T08:33:48;99805.88;;;18.84;56.19
9672;BME280;4874;43.568;27.824;2023-05-03T08:36:15;99809.34;;;17.99;56.62
9672;BME280;4874;43.568;27.824;2023-05-03T08:38:43;99816.31;;;18.40;56.35
9672;BME280;4874;43.568;27.824;2023-05-03T08:41:18;99813.38;;;17.95;56.60
9672;BME280;4874;43.568;27.824;2023-05-03T08:43:50;99816.56;;;17.90;58.99
9672;BME280;4874;43.568;27.824;2023-05-03T08:46:17;99796.78;;;17.43;60.45
9672;BME280;4874;43.568;27.824;2023-05-03T08:48:45;99809.88;;;17.38;60.22
9672;BME280;4874;43.568;27.824;2023-05-03T08:51:13;99800.97;;;17.53;58.73
9672;BME280;4874;43.568;27.824;2023-05-03T08:53:39;99806.19;;;18.89;58.81
9672;BME280;4874;43.568;27.824;2023-05-03T08:56:09;99799.22;;;19.25;58.68
9672;BME280;4874;43.568;27.824;2023-05-03T08:58:39;99789.00;;;18.04;58.23
9672;BME280;4874;43.568;27.824;2023-05-03T09:01:07;99791.06;;;17.78;58.50
9672;BME280;4874;43.568;27.824;2023-05-03T09:03:34;99805.38;;;18.33;58.46
9672;BME280;4874;43.568;27.824;2023-05-03T09:06:01;99803.00;;;17.84;59.45
9672;BME280;4874;43.568;27.824;2023-05-03T09:08:28;99815.91;;;17.80;63.50
9672;BME280;4874;43.568;27.824;2023-05-03T09:10:56;99825.25;;;18.16;62.15
9672;BME280;4874;43.568;27.824;2023-05-03T09:13:29;99828.00;;;17.92;58.86
9672;BME280;4874;43.568;27.824;2023-05-03T09:15:56;99832.03;;;17.80;60.60
9672;BME280;4874;43.568;27.824;2023-05-03T09:18:23;99830.97;;;17.25;60.96
9672;BME280;4874;43.568;27.824;2023-05-03T09:20:50;99835.66;;;17.23;60.39
9672;BME280;4874;43.568;27.824;2023-05-03T09:23:18;99827.94;;;17.28;61.60
9672;BME280;4874;43.568;27.824;2023-05-03T09:25:57;99819.84;;;17.04;63.92
9672;BME280;4874;43.568;27.824;2023-05-03T09:28:24;99821.38;;;17.06;63.61
9672;BME280;4874;43.568;27.824;2023-05-03T09:31:02;99816.34;;;17.19;62.91
9672;BME280;4874;43.568;27.824;2023-05-03T09:33:29;99796.44;;;17.38;64.35
9672;BME280;4874;43.568;27.824;2023-05-03T09:35:57;99799.78;;;17.40;62.44
9672;BME280;4874;43.568;27.824;2023-05-03T09:38:31;99799.47;;;17.83;61.59
9672;BME280;4874;43.568;27.824;2023-05-03T09:40:58;99794.09;;;17.59;60.54
9672;BME280;4874;43.568;27.824;2023-05-03T09:43:26;99787.91;;;17.67;60.25
9672;BME280;4874;43.568;27.824;2023-05-03T09:46:15;99792.31;;;18.22;58.46
9672;BME280;4874;43.568;27.824;2023-05-03T09:48:40;99787.06;;;18.45;57.38
9672;BME280;4874;43.568;27.824;2023-05-03T09:51:07;99772.94;;;17.40;60.23
9672;BME280;4874;43.568;27.824;2023-05-03T09:53:34;99781.81;;;18.05;59.61
9672;BME280;4874;43.568;27.824;2023-05-03T09:56:02;99776.53;;;18.19;59.58
9672;BME280;4874;43.568;27.824;2023-05-03T09:58:29;99794.28;;;18.36;58.00
9672;BME280;4874;43.568;27.824;2023-05-03T10:01:00;99793.06;;;18.55;55.08
9672;BME280;4874;43.568;27.824;2023-05-03T10:03:33;99777.41;;;18.66;53.28
9672;BME280;4874;43.568;27.824;2023-05-03T10:06:04;99772.78;;;18.36;52.26
9672;BME280;4874;43.568;27.824;2023-05-03T10:08:40;99786.50;;;18.57;52.58
9672;BME280;4874;43.568;27.824;2023-05-03T10:11:10;99778.03;;;18.68;53.43
9672;BME280;4874;43.568;27.824;2023-05-03T10:13:39;99767.19;;;18.85;51.23
9672;BME280;4874;43.568;27.824;2023-05-03T10:16:07;99770.84;;;18.92;52.31
9672;BME280;4874;43.568;27.824;2023-05-03T10:18:41;99765.72;;;18.74;54.16
9672;BME280;4874;43.568;27.824;2023-05-03T10:21:17;99766.59;;;19.65;52.88
9672;BME280;4874;43.568;27.824;2023-05-03T10:26:32;99766.47;;;18.91;52.30
9672;BME280;4874;43.568;27.824;2023-05-03T10:28:58;99756.31;;;18.70;52.91
9672;BME280;4874;43.568;27.824;2023-05-03T10:31:42;99756.84;;;19.64;51.04
9672;BME280;4874;43.568;27.824;2023-05-03T10:34:20;99758.06;;;19.39;49.56
9672;BME280;4874;43.568;27.824;2023-05-03T10:36:47;99755.84;;;19.79;50.45
9672;BME280;4874;43.568;27.824;2023-05-03T10:39:15;99741.97;;;19.68;51.40
9672;BME280;4874;43.568;27.824;2023-05-03T10:41:43;99762.06;;;18.98;52.90
9672;BME280;4874;43.568;27.824;2023-05-03T10:44:26;99748.25;;;19.46;51.36
9672;BME280;4874;43.568;27.824;2023-05-03T10:46:53;99739.94;;;18.10;51.40
9672;BME280;4874;43.568;27.824;2023-05-03T10:49:21;99739.41;;;18.61;52.33
9672;BME280;4874;43.568;27.824;2023-05-03T10:51:48;99763.91;;;18.28;52.69
9672;BME280;4874;43.568;27.824;2023-05-03T10:54:15;99742.84;;;18.39;53.70
9672;BME280;4874;43.568;27.824;2023-05-03T10:56:49;99736.75;;;19.07;52.86
9672;BME280;4874;43.568;27.824;2023-05-03T10:59:16;99741.50;;;19.50;52.47
9672;BME280;4874;43.568;27.824;2023-05-03T11:01:43;99738.28;;;18.56;53.28
9672;BME280;4874;43.568;27.824;2023-05-03T11:04:31;99739.09;;;19.55;53.24
9672;BME280;4874;43.568;27.824;2023-05-03T11:06:59;99754.44;;;18.01;54.95
9672;BME280;4874;43.568;27.824;2023-05-03T11:09:30;99730.56;;;17.98;54.40
9672;BME280;4874;43.568;27.824;2023-05-03T11:11:57;99737.63;;;19.30;53.48
9672;BME280;4874;43.568;27.824;2023-05-03T11:14:24;99736.53;;;19.90;50.88
9672;BME280;4874;43.568;27.824;2023-05-03T11:16:50;99742.31;;;18.05;53.29
9672;BME280;4874;43.568;27.824;2023-05-03T11:19:17;99746.06;;;17.88;52.61
9672;BME280;4874;43.568;27.824;2023-05-03T11:21:43;99755.47;;;18.47;51.37
9672;BME280;4874;43.568;27.824;2023-05-03T11:24:11;99745.44;;;18.25;51.49
9672;BME280;4874;43.568;27.824;2023-05-03T11:26:38;99741.19;;;19.22;50.22
9672;BME280;4874;43.568;27.824;2023-05-03T11:29:04;99750.38;;;18.52;51.80
9672;BME280;4874;43.568;27.824;2023-05-03T11:31:31;99748.72;;;18.51;51.80
9672;BME280;4874;43.568;27.824;2023-05-03T11:33:58;99734.50;;;18.26;51.03
9672;BME280;4874;43.568;27.824;2023-05-03T11:36:25;99746.53;;;18.54;49.43
9672;BME280;4874;43.568;27.824;2023-05-03T11:38:53;99719.88;;;18.67;49.91
9672;BME280;4874;43.568;27.824;2023-05-03T11:41:19;99711.22;;;18.49;50.35
9672;BME280;4874;43.568;27.824;2023-05-03T11:43:47;99707.69;;;19.62;49.03
9672;BME280;4874;43.568;27.824;2023-05-03T11:46:24;99714.28;;;18.38;50.35
9672;BME280;4874;43.568;27.824;2023-05-03T11:48:52;99699.72;;;17.86;49.11
9672;BME280;4874;43.568;27.824;2023-05-03T11:51:21;99696.72;;;17.81;49.47
9672;BME280;4874;43.568;27.824;2023-05-03T11:53:49;99686.72;;;17.43;50.03
9672;BME280;4874;43.568;27.824;2023-05-03T11:56:16;99697.00;;;18.41;49.09
9672;BME280;4874;43.568;27.824;2023-05-03T11:58:53;99690.34;;;17.74;49.35
9672;BME280;4874;43.568;27.824;2023-05-03T12:01:23;99694.25;;;17.64;49.27
9672;BME280;4874;43.568;27.824;2023-05-03T12:03:54;99702.03;;;17.97;49.67
9672;BME280;4874;43.568;27.824;2023-05-03T12:06:21;99683.59;;;18.86;49.65
9672;BME280;4874;43.568;27.824;2023-05-03T12:08:49;99683.72;;;18.93;49.80
9672;BME280;4874;43.568;27.824;2023-05-03T12:11:16;99687.94;;;17.95;51.38
9672;BME280;4874;43.568;27.824;2023-05-03T12:13:43;99697.19;;;18.31;51.10
9672;BME280;4874;43.568;27.824;2023-05-03T12:16:12;99692.63;;;18.93;50.02
9672;BME280;4874;43.568;27.824;2023-05-03T12:18:54;99697.28;;;18.54;49.73
9672;BME280;4874;43.568;27.824;2023-05-03T12:21:23;99694.28;;;18.02;51.30
9672;BME280;4874;43.568;27.824;2023-05-03T12:23:53;99695.66;;;17.98;50.67
9672;BME280;4874;43.568;27.824;2023-05-03T12:26:22;99691.06;;;18.15;51.46
9672;BME280;4874;43.568;27.824;2023-05-03T12:28:48;99700.78;;;17.77;52.17
9672;BME280;4874;43.568;27.824;2023-05-03T12:31:15;99699.44;;;18.12;52.55
9672;BME280;4874;43.568;27.824;2023-05-03T12:33:43;99701.00;;;17.98;51.80
9672;BME280;4874;43.568;27.824;2023-05-03T12:36:29;99709.53;;;17.47;52.46
9672;BME280;4874;43.568;27.824;2023-05-03T12:39:00;99712.53;;;17.04;53.05
9672;BME280;4874;43.568;27.824;2023-05-03T12:41:27;99710.84;;;16.79;54.51
9672;BME280;4874;43.568;27.824;2023-05-03T12:44:16;99694.44;;;17.06;54.78
9672;BME280;4874;43.568;27.824;2023-05-03T12:46:48;99691.13;;;16.38;55.74
9672;BME280;4874;43.568;27.824;2023-05-03T12:49:15;99689.09;;;16.90;56.86
9672;BME280;4874;43.568;27.824;2023-05-03T12:51:42;99684.06;;;15.87;58.35
9672;BME280;4874;43.568;27.824;2023-05-03T12:54:15;99670.50;;;16.30;59.13
9672;BME280;4874;43.568;27.824;2023-05-03T12:56:45;99656.44;;;16.28;58.77
9672;BME280;4874;43.568;27.824;2023-05-03T12:59:13;99659.50;;;16.41;56.99
9672;BME280;4874;43.568;27.824;2023-05-03T13:01:42;99683.44;;;16.43;57.60
9672;BME280;4874;43.568;27.824;2023-05-03T13:04:12;99684.84;;;16.55;57.99
9672;BME280;4874;43.568;27.824;2023-05-03T13:06:42;99685.28;;;16.42;59.48
9672;BME280;4874;43.568;27.824;2023-05-03T13:09:10;99682.88;;;16.81;59.79
9672;BME280;4874;43.568;27.824;2023-05-03T13:11:44;99685.56;;;16.23;62.71
9672;BME280;4874;43.568;27.824;2023-05-03T13:14:14;99677.66;;;16.06;63.22
9672;BME280;4874;43.568;27.824;2023-05-03T13:16:41;99666.44;;;16.10;62.09
9672;BME280;4874;43.568;27.824;2023-05-03T13:19:11;99672.66;;;16.27;62.96
9672;BME280;4874;43.568;27.824;2023-05-03T13:21:38;99659.84;;;15.89;63.57
9672;BME280;4874;43.568;27.824;2023-05-03T13:24:04;99653.13;;;15.85;63.70